Time;durP1;ratioP1;P1;durP2;ratioP2;P2;SDS_P1;SDS_P2;PMS_P1;PMS_P2;Temp;Humidity;BMP_temperature;BMP_pressure;BME280_temperature;BME280_humidity;BME280_pressure;Samples;Min_cycle;Max_cycle;Signal;HPM_P1;HPM_P2
2023/11/30 00:01:55;;;;;;;16.30;10.00;;;;;;;4.37;96.86;100326.23;108255;1285;21983;-62
2023/11/30 00:04:21;;;;;;;22.40;11.30;;;;;;;4.34;96.08;100327.42;108321;1277;22006;-61
2023/11/30 00:06:46;;;;;;;29.00;13.50;;;;;;;4.29;95.07;100329.77;108150;1285;22014;-61
2023/11/30 00:09:12;;;;;;;41.30;15.30;;;;;;;4.23;93.80;100332.30;108095;1277;21986;-61
2023/11/30 00:11:37;;;;;;;63.30;21.30;;;;;;;4.20;94.39;100337.48;108114;1285;21985;-63
2023/11/30 00:14:03;;;;;;;34.20;13.60;;;;;;;4.18;94.73;100345.46;108024;1285;22560;-63
2023/11/30 00:16:29;;;;;;;23.70;12.30;;;;;;;4.17;94.91;100346.49;108076;1285;21985;-64
2023/11/30 00:18:55;;;;;;;23.80;11.10;;;;;;;4.18;94.84;100352.23;108218;1280;22000;-63
2023/11/30 00:21:21;;;;;;;20.40;10.80;;;;;;;4.18;94.83;100361.61;108109;1277;22476;-64
2023/11/30 00:23:47;;;;;;;17.50;10.50;;;;;;;4.15;94.62;100365.75;108307;1285;21991;-63
2023/11/30 00:26:14;;;;;;;18.40;10.10;;;;;;;4.14;94.65;100370.42;108138;1285;22116;-63
2023/11/30 00:28:41;;;;;;;15.70;8.60;;;;;;;4.10;93.37;100379.21;108046;1285;22002;-61
2023/11/30 00:31:07;;;;;;;18.30;9.50;;;;;;;4.11;94.55;100378.70;108084;1285;22030;-64
2023/11/30 00:33:33;;;;;;;18.60;10.00;;;;;;;4.11;95.12;100381.66;107302;1277;1002145;-63
2023/11/30 00:35:59;;;;;;;16.30;8.90;;;;;;;4.13;95.81;100383.08;108267;1281;22109;-61
2023/11/30 00:38:24;;;;;;;16.00;8.30;;;;;;;4.14;95.88;100388.13;108042;1277;22146;-63
2023/11/30 00:40:50;;;;;;;15.60;7.50;;;;;;;4.14;96.61;100389.16;108173;1285;21997;-63
2023/11/30 00:43:16;;;;;;;16.50;9.10;;;;;;;4.11;96.00;100390.70;108240;1280;21985;-61
2023/11/30 00:45:42;;;;;;;17.30;8.90;;;;;;;4.05;95.03;100393.20;108093;1277;21992;-62
2023/11/30 00:48:07;;;;;;;15.30;7.80;;;;;;;4.00;94.85;100397.98;108111;1283;21988;-67
2023/11/30 00:50:33;;;;;;;17.50;9.40;;;;;;;3.96;94.68;100404.71;108138;1285;22102;-63
2023/11/30 00:52:58;;;;;;;16.30;9.20;;;;;;;3.90;93.70;100413.12;108082;1285;21983;-62
2023/11/30 00:55:24;;;;;;;15.50;8.00;;;;;;;3.84;93.33;100413.20;108122;1285;21989;-64
2023/11/30 00:57:49;;;;;;;19.90;9.60;;;;;;;3.80;93.58;100411.40;108239;1285;21987;-61
2023/11/30 01:00:16;;;;;;;17.20;9.50;;;;;;;3.71;92.40;100406.41;108080;1283;21994;-63
2023/11/30 01:02:41;;;;;;;18.80;8.70;;;;;;;3.64;91.93;100413.06;108196;1277;21992;-61
2023/11/30 01:05:07;;;;;;;19.20;8.30;;;;;;;3.59;93.22;100415.06;108113;1280;22002;-64
2023/11/30 01:07:33;;;;;;;19.40;9.50;;;;;;;3.55;93.60;100414.64;108107;1276;21983;-64
2023/11/30 01:09:59;;;;;;;18.70;8.10;;;;;;;3.53;94.62;100414.61;108039;1285;21993;-61
2023/11/30 01:12:28;;;;;;;16.90;9.50;;;;;;;3.53;95.61;100419.30;108032;1285;22041;-65
2023/11/30 01:14:53;;;;;;;13.80;7.60;;;;;;;3.55;96.65;100420.19;107982;1285;22002;-64
2023/11/30 01:17:19;;;;;;;14.20;7.70;;;;;;;3.56;96.84;100426.11;108143;1277;21982;-62
2023/11/30 01:19:45;;;;;;;15.00;7.40;;;;;;;3.56;97.09;100429.58;108099;1280;22043;-61
2023/11/30 01:22:11;;;;;;;14.70;8.60;;;;;;;3.53;96.38;100426.23;108098;1285;22027;-63
2023/11/30 01:24:37;;;;;;;13.10;7.40;;;;;;;3.49;95.75;100426.01;108166;1285;21986;-63
2023/11/30 01:27:03;;;;;;;14.20;7.80;;;;;;;3.44;95.33;100429.55;108008;1277;24425;-60
2023/11/30 01:29:28;;;;;;;13.90;8.00;;;;;;;3.38;95.21;100432.58;107395;1274;1002593;-61
2023/11/30 01:31:54;;;;;;;14.60;7.60;;;;;;;3.33;94.62;100435.60;107383;1277;1002592;-60
2023/11/30 01:34:19;;;;;;;14.50;7.40;;;;;;;3.26;94.62;100437.05;108056;1285;21994;-64
2023/11/30 01:36:45;;;;;;;17.00;8.30;;;;;;;3.19;93.74;100436.90;107334;1274;1002776;-60
2023/11/30 01:39:12;;;;;;;14.50;7.50;;;;;;;3.11;93.58;100439.01;108136;1280;24013;-60
2023/11/30 01:41:38;;;;;;;14.80;8.00;;;;;;;3.04;93.96;100442.02;108028;1285;21992;-61
2023/11/30 01:44:03;;;;;;;16.30;8.10;;;;;;;2.99;94.48;100451.61;108036;1277;22263;-61
2023/11/30 01:46:30;;;;;;;16.10;8.00;;;;;;;2.97;95.18;100453.30;108171;1274;21988;-62
2023/11/30 01:48:56;;;;;;;14.30;7.90;;;;;;;2.96;95.88;100457.11;108261;1274;22036;-61
2023/11/30 01:51:21;;;;;;;13.10;7.60;;;;;;;2.98;96.44;100457.33;107454;1274;1002696;-64
2023/11/30 01:53:47;;;;;;;14.60;7.30;;;;;;;3.01;96.96;100456.67;107428;1285;1002849;-60
2023/11/30 01:56:13;;;;;;;15.50;8.00;;;;;;;3.02;97.23;100455.48;107479;1285;1002350;-61
2023/11/30 01:58:38;;;;;;;15.50;7.40;;;;;;;3.01;97.05;100461.88;108005;1286;22019;-60
2023/11/30 02:01:04;;;;;;;13.10;7.10;;;;;;;2.98;96.96;100457.84;108125;1280;23680;-61
2023/11/30 02:03:30;;;;;;;36.80;15.30;;;;;;;2.96;96.82;100459.00;108184;1280;21986;-65
2023/11/30 02:05:56;;;;;;;31.00;13.20;;;;;;;2.92;96.61;100456.50;108182;1279;23711;-63
2023/11/30 02:08:21;;;;;;;24.20;10.70;;;;;;;2.86;96.00;100458.98;108288;1280;22047;-61
2023/11/30 02:10:47;;;;;;;15.90;8.00;;;;;;;2.79;95.85;100461.97;108075;1281;22001;-61
2023/11/30 02:13:12;;;;;;;16.00;7.80;;;;;;;2.77;96.18;100468.33;108113;1280;21988;-65
2023/11/30 02:15:38;;;;;;;14.30;7.70;;;;;;;2.75;95.95;100475.20;108154;1286;21975;-64
2023/11/30 02:18:04;;;;;;;16.50;8.40;;;;;;;2.73;95.84;100478.64;108156;1276;22048;-61
2023/11/30 02:20:29;;;;;;;17.70;8.30;;;;;;;2.73;96.19;100482.96;108038;1277;23441;-65
2023/11/30 02:22:55;;;;;;;16.10;8.10;;;;;;;2.73;96.24;100490.76;108146;1277;22027;-61
2023/11/30 02:25:21;;;;;;;16.10;8.60;;;;;;;2.70;95.82;100496.08;108258;1286;22548;-64
2023/11/30 02:27:46;;;;;;;17.40;8.40;;;;;;;2.65;95.59;100502.55;108275;1277;21985;-66
2023/11/30 02:30:12;;;;;;;25.00;10.90;;;;;;;2.64;96.37;100504.98;108283;1280;21987;-62
2023/11/30 02:32:38;;;;;;;33.50;14.50;;;;;;;2.67;96.83;100513.35;108163;1286;22852;-61
2023/11/30 02:35:04;;;;;;;24.40;9.90;;;;;;;2.68;97.00;100514.23;108165;1286;21991;-66
2023/11/30 02:37:30;;;;;;;18.60;9.40;;;;;;;2.69;97.22;100517.89;107496;1280;1003526;-65
2023/11/30 02:39:55;;;;;;;21.10;9.60;;;;;;;2.68;96.99;100517.86;107576;1286;1003028;-64
2023/11/30 02:42:21;;;;;;;20.40;9.90;;;;;;;2.65;96.37;100520.05;107583;1274;1002474;-66
2023/11/30 02:44:46;;;;;;;28.00;12.30;;;;;;;2.61;95.99;100519.96;107311;1280;1002758;-65
2023/11/30 02:47:12;;;;;;;19.60;9.90;;;;;;;2.54;95.38;100520.50;107407;1286;1006518;-65
2023/11/30 02:49:38;;;;;;;18.40;8.60;;;;;;;2.43;94.07;100521.64;107592;1277;1003041;-61
2023/11/30 02:52:04;;;;;;;18.00;9.30;;;;;;;2.30;92.75;100524.45;107539;1285;1002676;-65
2023/11/30 02:54:29;;;;;;;18.00;9.70;;;;;;;2.21;92.64;100526.52;108343;1285;21989;-66
2023/11/30 02:56:55;;;;;;;16.60;9.00;;;;;;;2.15;93.07;100531.87;108295;1274;21996;-61
2023/11/30 02:59:22;;;;;;;18.80;9.00;;;;;;;2.06;92.43;100536.00;108236;1286;23481;-65
2023/11/30 03:01:48;;;;;;;17.30;8.80;;;;;;;1.98;92.02;100535.61;108309;1286;21995;-66
2023/11/30 03:04:14;;;;;;;24.80;10.70;;;;;;;1.89;92.12;100535.23;108116;1285;23055;-66
2023/11/30 03:06:40;;;;;;;32.70;12.60;;;;;;;1.86;92.87;100535.84;108077;1277;21993;-66
2023/11/30 03:09:06;;;;;;;31.30;12.50;;;;;;;1.85;93.62;100538.08;108264;1285;22021;-66
2023/11/30 03:11:32;;;;;;;23.00;10.20;;;;;;;1.88;94.49;100541.96;108096;1274;22023;-66
2023/11/30 03:13:57;;;;;;;23.10;10.00;;;;;;;1.92;95.37;100548.29;107340;1274;1002936;-67
2023/11/30 03:16:26;;;;;;;26.70;9.80;;;;;;;1.95;95.58;100546.61;108313;1279;21977;-66
2023/11/30 03:18:52;;;;;;;21.40;9.60;;;;;;;1.97;95.51;100546.84;108045;1277;209186;-66
2023/11/30 03:21:18;;;;;;;23.00;10.60;;;;;;;1.96;95.54;100548.41;108270;1280;22423;-61
2023/11/30 03:23:44;;;;;;;20.10;9.90;;;;;;;1.96;95.30;100548.04;108191;1287;21986;-61
2023/11/30 03:26:10;;;;;;;20.10;9.80;;;;;;;1.95;95.16;100542.46;108243;1277;21990;-61
2023/11/30 03:28:36;;;;;;;21.70;9.20;;;;;;;1.93;95.04;100542.62;108332;1273;24319;-61
2023/11/30 03:31:01;;;;;;;20.40;9.70;;;;;;;1.93;95.36;100547.98;108329;1286;21990;-61
2023/11/30 03:33:27;;;;;;;26.40;10.30;;;;;;;1.94;95.64;100550.08;108139;1286;22024;-62
2023/11/30 03:35:53;;;;;;;21.20;11.30;;;;;;;1.92;95.47;100553.31;108099;1283;21985;-61
2023/11/30 03:38:19;;;;;;;23.50;11.00;;;;;;;1.88;95.15;100549.75;108224;1285;21993;-66
2023/11/30 03:40:45;;;;;;;19.00;9.40;;;;;;;1.84;94.90;100546.69;108146;1285;21989;-62
2023/11/30 03:43:10;;;;;;;18.90;8.90;;;;;;;1.78;94.87;100548.95;108140;1285;22002;-66
2023/11/30 03:45:36;;;;;;;22.00;10.80;;;;;;;1.75;94.82;100548.20;108081;1285;21997;-60
2023/11/30 03:48:02;;;;;;;19.50;9.80;;;;;;;1.74;94.84;100549.73;108159;1280;21987;-60
2023/11/30 03:50:27;;;;;;;16.30;8.30;;;;;;;1.74;94.93;100550.42;108246;1285;22048;-62
2023/11/30 03:52:53;;;;;;;17.40;8.60;;;;;;;1.73;94.81;100551.26;108305;1283;24357;-67
2023/11/30 03:55:19;;;;;;;16.80;7.20;;;;;;;1.72;94.67;100557.46;108034;1285;21980;-60
2023/11/30 03:57:44;;;;;;;14.20;7.10;;;;;;;1.73;94.28;100563.02;108185;1277;24323;-60
2023/11/30 04:00:13;;;;;;;16.80;7.60;;;;;;;1.70;93.74;100570.90;107366;1282;1003106;-60
2023/11/30 04:02:39;;;;;;;16.50;8.70;;;;;;;1.65;93.65;100574.39;108224;1280;24409;-66
2023/11/30 04:05:05;;;;;;;16.90;8.00;;;;;;;1.61;93.26;100578.95;108248;1285;21994;-60
2023/11/30 04:07:31;;;;;;;18.00;7.90;;;;;;;1.57;92.91;100578.48;107519;1286;1002631;-64
2023/11/30 04:10:00;;;;;;;18.00;8.40;;;;;;;1.56;93.20;100582.08;108025;1277;21986;-67
2023/11/30 04:12:25;;;;;;;15.90;7.80;;;;;;;1.56;93.49;100581.40;107318;1277;1002303;-67
2023/11/30 04:14:51;;;;;;;16.30;7.50;;;;;;;1.53;93.30;100578.39;108033;1282;21979;-67
2023/11/30 04:17:17;;;;;;;15.80;8.10;;;;;;;1.45;92.43;100582.31;108151;1285;21987;-67
2023/11/30 04:19:42;;;;;;;17.90;9.10;;;;;;;1.37;92.19;100587.27;108243;1285;21977;-67
2023/11/30 04:22:08;;;;;;;14.70;7.50;;;;;;;1.33;92.27;100589.59;108168;1285;21997;-61
2023/11/30 04:24:34;;;;;;;18.90;9.00;;;;;;;1.30;92.57;100592.29;108072;1273;24364;-59
2023/11/30 04:27:01;;;;;;;15.70;7.90;;;;;;;1.29;92.70;100599.67;108076;1285;22064;-60
2023/11/30 04:29:28;;;;;;;22.20;9.80;;;;;;;1.30;92.94;100606.80;108138;1280;24083;-67
2023/11/30 04:31:53;;;;;;;20.00;9.80;;;;;;;1.31;93.21;100608.91;107345;1277;1003422;-67
2023/11/30 04:34:19;;;;;;;19.70;9.00;;;;;;;1.32;93.43;100607.02;107372;1285;1003129;-67
2023/11/30 04:36:46;;;;;;;18.30;8.80;;;;;;;1.31;93.20;100610.46;108061;1277;22027;-67
2023/11/30 04:39:11;;;;;;;17.50;9.10;;;;;;;1.30;93.29;100609.91;108096;1285;21991;-60
2023/11/30 04:41:38;;;;;;;15.00;7.50;;;;;;;1.27;93.77;100609.30;108024;1285;21989;-62
2023/11/30 04:44:04;;;;;;;16.50;8.10;;;;;;;1.24;94.47;100612.33;108107;1283;23643;-60
2023/11/30 04:46:30;;;;;;;17.90;9.30;;;;;;;1.22;94.32;100615.55;108114;1285;21995;-61
2023/11/30 04:48:57;;;;;;;18.20;8.50;;;;;;;1.19;94.23;100616.33;108072;1285;22021;-60
2023/11/30 04:51:22;;;;;;;15.30;8.60;;;;;;;1.17;94.12;100615.77;108069;1281;21997;-67
2023/11/30 04:53:49;;;;;;;17.30;8.50;;;;;;;1.13;93.74;100620.98;108074;1277;21987;-61
2023/11/30 04:56:14;;;;;;;19.30;8.90;;;;;;;1.08;93.46;100627.75;108084;1277;23670;-60
2023/11/30 04:58:40;;;;;;;18.80;9.80;;;;;;;1.04;93.13;100626.42;108049;1286;22178;-67
2023/11/30 05:01:05;;;;;;;18.90;8.70;;;;;;;0.97;92.28;100627.93;107332;1285;1002239;-65
2023/11/30 05:03:31;;;;;;;20.00;9.10;;;;;;;0.91;92.14;100627.77;108249;1274;21996;-67
2023/11/30 05:05:57;;;;;;;17.90;8.90;;;;;;;0.89;92.55;100624.77;108252;1277;21985;-67
2023/11/30 05:08:23;;;;;;;19.30;9.90;;;;;;;0.89;92.68;100629.23;108174;1286;21987;-61
2023/11/30 05:10:48;;;;;;;16.60;8.90;;;;;;;0.91;93.16;100634.14;108314;1277;23053;-61
2023/11/30 05:13:14;;;;;;;15.00;8.00;;;;;;;0.99;94.14;100637.33;108226;1286;22027;-66
2023/11/30 05:15:40;;;;;;;18.70;7.80;;;;;;;1.09;94.96;100641.59;108241;1285;21990;-65
2023/11/30 05:18:06;;;;;;;17.80;8.90;;;;;;;1.16;95.31;100647.55;108325;1278;21983;-61
2023/11/30 05:20:32;;;;;;;15.40;7.90;;;;;;;1.23;95.73;100646.55;107489;1284;1002476;-72
2023/11/30 05:22:57;;;;;;;18.60;8.60;;;;;;;1.29;95.79;100647.39;108223;1274;23715;-62
2023/11/30 05:25:23;;;;;;;19.70;8.10;;;;;;;1.32;95.68;100652.34;108262;1285;22450;-60
2023/11/30 05:27:48;;;;;;;19.70;9.20;;;;;;;1.33;95.65;100653.05;108162;1279;21987;-60
2023/11/30 05:30:14;;;;;;;21.50;9.90;;;;;;;1.36;95.70;100655.20;107513;1274;1002268;-61
2023/11/30 05:32:40;;;;;;;15.70;7.80;;;;;;;1.37;95.74;100655.77;108173;1274;22452;-60
2023/11/30 05:35:07;;;;;;;17.20;9.00;;;;;;;1.37;95.27;100656.27;108108;1285;22047;-60
2023/11/30 05:37:32;;;;;;;17.70;8.90;;;;;;;1.37;95.35;100657.66;108038;1284;21997;-60
2023/11/30 05:39:58;;;;;;;20.20;8.80;;;;;;;1.38;95.55;100661.66;108063;1280;21997;-60
2023/11/30 05:42:24;;;;;;;15.80;8.50;;;;;;;1.41;95.94;100663.66;108075;1285;22004;-62
2023/11/30 05:44:50;;;;;;;14.60;6.90;;;;;;;1.44;95.88;100669.30;108139;1285;21988;-61
2023/11/30 05:47:15;;;;;;;13.90;7.70;;;;;;;1.47;95.65;100679.05;108156;1285;22018;-60
2023/11/30 05:49:41;;;;;;;19.70;9.60;;;;;;;1.47;95.67;100678.38;108202;1276;22194;-60
2023/11/30 05:52:07;;;;;;;22.70;11.30;;;;;;;1.47;95.57;100675.43;108067;1281;23737;-60
2023/11/30 05:54:33;;;;;;;22.50;9.40;;;;;;;1.43;94.87;100677.23;108097;1285;21993;-61
2023/11/30 05:56:59;;;;;;;18.80;8.70;;;;;;;1.40;94.27;100683.52;108084;1285;21985;-61
2023/11/30 05:59:24;;;;;;;16.10;9.10;;;;;;;1.39;94.19;100683.46;108168;1285;21987;-60
2023/11/30 06:01:50;;;;;;;19.60;8.70;;;;;;;1.42;94.56;100685.63;108055;1277;22104;-60
2023/11/30 06:04:15;;;;;;;18.60;8.30;;;;;;;1.46;94.84;100688.89;108149;1286;21989;-61
2023/11/30 06:06:41;;;;;;;16.60;7.90;;;;;;;1.51;95.21;100691.13;108198;1277;21996;-60
2023/11/30 06:09:06;;;;;;;17.10;8.30;;;;;;;1.55;95.12;100695.36;108033;1285;22450;-60
2023/11/30 06:11:32;;;;;;;17.00;8.60;;;;;;;1.58;95.17;100693.90;108164;1285;21992;-63
2023/11/30 06:13:58;;;;;;;18.00;8.20;;;;;;;1.64;95.32;100697.71;108259;1286;21996;-60
2023/11/30 06:16:24;;;;;;;17.80;9.60;;;;;;;1.70;95.35;100703.77;108139;1286;21989;-60
2023/11/30 06:18:49;;;;;;;18.80;8.90;;;;;;;1.77;95.81;100709.16;108170;1278;21995;-61
2023/11/30 06:21:16;;;;;;;15.70;8.10;;;;;;;1.86;96.28;100710.27;108230;1286;21992;-60
2023/11/30 06:23:41;;;;;;;19.30;8.80;;;;;;;1.93;96.16;100709.44;108256;1286;21995;-60
2023/11/30 06:26:08;;;;;;;17.50;8.10;;;;;;;1.99;96.08;100714.98;108155;1286;21991;-60
2023/11/30 06:28:33;;;;;;;21.30;9.30;;;;;;;2.08;96.57;100711.91;108167;1280;21988;-61
2023/11/30 06:31:00;;;;;;;18.70;8.50;;;;;;;2.27;98.19;100713.14;108136;1286;21989;-60
2023/11/30 06:33:26;;;;;;;21.90;9.80;;;;;;;2.43;97.89;100718.74;108262;1280;21990;-60
2023/11/30 06:35:51;;;;;;;15.60;8.10;;;;;;;2.50;97.01;100721.87;108342;1286;21984;-61
2023/11/30 06:38:17;;;;;;;16.80;7.20;;;;;;;2.57;96.96;100725.02;108202;1285;21985;-60
2023/11/30 06:40:42;;;;;;;16.90;7.90;;;;;;;2.67;97.29;100720.40;108185;1285;21995;-60
2023/11/30 06:43:08;;;;;;;21.20;9.90;;;;;;;2.74;96.83;100724.91;108303;1285;21995;-61
2023/11/30 06:45:34;;;;;;;15.50;8.40;;;;;;;2.80;96.55;100725.77;108217;1277;21981;-60
2023/11/30 06:47:59;;;;;;;14.50;7.40;;;;;;;2.87;96.49;100730.77;108228;1284;21987;-60
2023/11/30 06:50:25;;;;;;;16.60;8.20;;;;;;;2.94;96.69;100734.61;108286;1277;22002;-60
2023/11/30 06:52:50;;;;;;;17.60;8.80;;;;;;;3.00;96.52;100735.27;108222;1285;21989;-61
2023/11/30 06:55:16;;;;;;;16.70;8.10;;;;;;;3.06;96.38;100738.89;107533;1280;1002615;-60
2023/11/30 06:57:42;;;;;;;14.60;7.60;;;;;;;3.14;96.70;100741.15;108095;1277;22454;-60
2023/11/30 07:00:09;;;;;;;13.20;7.30;;;;;;;3.24;97.12;100746.23;107284;1285;1002539;-61
2023/11/30 07:02:35;;;;;;;11.80;6.70;;;;;;;3.34;97.30;100744.38;108204;1285;22479;-60
2023/11/30 07:05:00;;;;;;;13.70;7.20;;;;;;;3.45;96.71;100749.48;108098;1277;21983;-61
2023/11/30 07:07:26;;;;;;;13.30;7.00;;;;;;;3.55;96.64;100758.39;108037;1284;21987;-62
2023/11/30 07:09:52;;;;;;;14.00;7.00;;;;;;;3.65;96.94;100762.09;108066;1280;22023;-61
2023/11/30 07:12:18;;;;;;;13.30;7.50;;;;;;;3.75;96.97;100758.64;108092;1285;21991;-61
2023/11/30 07:14:43;;;;;;;14.40;7.70;;;;;;;3.84;96.95;100757.96;108096;1277;21990;-60
2023/11/30 07:17:09;;;;;;;15.90;7.20;;;;;;;3.91;96.67;100758.66;108183;1285;21990;-62
2023/11/30 07:19:39;;;;;;;14.00;7.20;;;;;;;3.98;96.76;100757.76;108183;1284;21985;-60
2023/11/30 07:22:05;;;;;;;17.00;7.30;;;;;;;4.09;97.42;100759.70;108092;1274;21989;-60
2023/11/30 07:24:30;;;;;;;15.00;7.40;;;;;;;4.18;96.84;100757.63;108192;1285;21989;-61
2023/11/30 07:26:56;;;;;;;12.20;6.10;;;;;;;4.25;96.84;100763.83;108095;1280;21997;-61
2023/11/30 07:29:22;;;;;;;12.90;6.50;;;;;;;4.35;97.29;100765.23;108110;1277;21994;-60
2023/11/30 07:31:50;;;;;;;11.00;6.20;;;;;;;4.43;95.48;100767.49;108355;1283;21996;-60
2023/11/30 07:34:15;;;;;;;12.40;6.60;;;;;;;4.52;94.98;100766.95;108250;1277;21984;-61
2023/11/30 07:36:41;;;;;;;12.50;6.70;;;;;;;4.60;93.33;100765.20;108095;1285;21995;-61
2023/11/30 07:39:07;;;;;;;11.20;6.50;;;;;;;4.66;92.11;100765.13;108099;1285;22012;-61
2023/11/30 07:41:32;;;;;;;12.90;5.80;;;;;;;4.75;93.89;100768.25;108094;1285;22025;-61
2023/11/30 07:43:58;;;;;;;11.80;6.50;;;;;;;4.88;94.93;100772.81;108110;1277;21989;-61
2023/11/30 07:46:24;;;;;;;11.70;6.30;;;;;;;4.99;95.39;100771.44;108069;1280;21993;-62
2023/11/30 07:48:49;;;;;;;12.20;5.80;;;;;;;5.10;95.46;100775.96;108131;1285;21998;-61
2023/11/30 07:51:15;;;;;;;28.90;20.20;;;;;;;5.19;95.04;100777.50;108128;1277;22213;-59
2023/11/30 07:53:40;;;;;;;20.40;12.50;;;;;;;5.26;94.66;100782.67;108066;1285;21989;-59
2023/11/30 07:56:07;;;;;;;21.90;14.50;;;;;;;5.31;94.87;100781.88;108085;1286;22005;-59
2023/11/30 07:58:33;;;;;;;21.90;11.70;;;;;;;5.39;95.14;100789.30;108171;1278;22183;-60
2023/11/30 08:00:58;;;;;;;15.80;9.10;;;;;;;5.46;94.21;100790.29;108207;1285;22030;-60
2023/11/30 08:03:24;;;;;;;23.80;13.00;;;;;;;5.55;94.65;100793.02;108195;1277;22027;-60
2023/11/30 08:05:49;;;;;;;19.50;12.20;;;;;;;5.64;93.67;100795.26;108099;1285;24320;-60
2023/11/30 08:08:15;;;;;;;19.30;10.40;;;;;;;5.73;94.26;100793.12;108147;1285;21986;-60
2023/11/30 08:10:41;;;;;;;14.20;7.10;;;;;;;5.84;94.73;100790.84;108066;1274;21984;-62
2023/11/30 08:13:07;;;;;;;10.40;5.90;;;;;;;5.95;94.77;100787.14;108192;1285;22023;-61
2023/11/30 08:15:33;;;;;;;12.90;6.90;;;;;;;6.07;95.61;100792.37;108194;1280;22042;-60
2023/11/30 08:17:59;;;;;;;14.30;7.90;;;;;;;6.26;97.80;100795.77;108119;1283;21997;-60
2023/11/30 08:20:25;;;;;;;16.20;8.40;;;;;;;6.50;98.46;100799.16;108093;1285;22045;-62
2023/11/30 08:22:51;;;;;;;15.80;9.00;;;;;;;6.66;98.54;100799.16;108078;1277;22037;-59
2023/11/30 08:25:17;;;;;;;12.10;7.30;;;;;;;6.85;99.79;100799.02;108111;1274;23381;-60
2023/11/30 08:27:42;;;;;;;12.20;6.20;;;;;;;7.06;99.83;100799.89;108138;1277;21997;-61
2023/11/30 08:30:12;;;;;;;12.70;5.60;;;;;;;7.22;99.39;100792.70;108096;1277;22007;-60
2023/11/30 08:32:37;;;;;;;9.20;5.10;;;;;;;7.37;99.09;100797.19;108150;1286;23798;-60
2023/11/30 08:35:04;;;;;;;10.10;5.00;;;;;;;7.48;97.16;100793.42;108252;1286;21986;-60
2023/11/30 08:37:30;;;;;;;10.00;4.90;;;;;;;7.52;95.92;100785.41;108249;1276;22026;-62
2023/11/30 08:39:56;;;;;;;9.90;5.40;;;;;;;7.51;94.56;100775.63;108225;1276;24183;-60
2023/11/30 08:42:23;;;;;;;9.50;4.80;;;;;;;7.55;94.79;100772.16;108116;1283;21991;-60
2023/11/30 08:44:48;;;;;;;9.40;5.10;;;;;;;7.55;91.76;100771.28;108058;1277;22347;-62
2023/11/30 08:47:14;;;;;;;10.70;5.60;;;;;;;7.54;91.07;100771.98;108065;1279;21988;-60
2023/11/30 08:49:39;;;;;;;11.80;6.90;;;;;;;7.58;92.60;100770.79;108165;1277;21994;-60
2023/11/30 08:52:05;;;;;;;31.70;12.60;;;;;;;7.68;94.36;100763.52;108117;1275;21990;-60
2023/11/30 08:54:31;;;;;;;11.80;6.10;;;;;;;7.79;92.50;100757.10;108102;1285;21982;-60
2023/11/30 08:56:57;;;;;;;12.30;6.40;;;;;;;7.77;89.65;100753.60;108104;1285;21987;-60
2023/11/30 08:59:23;;;;;;;11.60;7.00;;;;;;;7.81;91.73;100752.75;108157;1281;21986;-60
2023/11/30 09:01:49;;;;;;;9.60;5.10;;;;;;;7.92;92.98;100747.05;108135;1286;21990;-61
2023/11/30 09:04:17;;;;;;;10.50;5.20;;;;;;;7.96;91.52;100749.15;108064;1274;22019;-62
2023/11/30 09:06:44;;;;;;;10.60;5.30;;;;;;;7.95;91.43;100751.59;108271;1285;23638;-62
2023/11/30 09:09:10;;;;;;;10.00;5.10;;;;;;;7.93;90.64;100753.34;108271;1274;22958;-62
2023/11/30 09:11:36;;;;;;;8.40;5.00;;;;;;;7.88;90.43;100749.46;107446;1285;1002508;-62
2023/11/30 09:14:02;;;;;;;12.30;6.90;;;;;;;7.87;89.53;100747.02;108143;1280;23643;-61
2023/11/30 09:16:27;;;;;;;9.70;5.20;;;;;;;7.82;87.20;100748.38;108144;1282;21992;-62
2023/11/30 09:18:56;;;;;;;7.90;4.00;;;;;;;7.80;87.81;100750.48;108206;1283;21991;-62
2023/11/30 09:21:22;;;;;;;12.00;6.20;;;;;;;7.83;87.86;100747.52;108173;1283;21986;-62
2023/11/30 09:23:48;;;;;;;8.90;4.90;;;;;;;7.84;87.31;100744.72;108153;1280;21999;-61
2023/11/30 09:26:13;;;;;;;11.00;5.20;;;;;;;7.82;85.26;100746.29;108129;1284;22178;-62
2023/11/30 09:28:39;;;;;;;12.50;7.80;;;;;;;7.83;85.79;100745.08;108222;1286;23720;-60
2023/11/30 09:31:05;;;;;;;12.90;5.70;;;;;;;7.91;88.40;100742.66;108082;1285;22459;-61
2023/11/30 09:33:31;;;;;;;9.00;5.10;;;;;;;8.07;89.54;100742.04;108149;1280;23049;-62
2023/11/30 09:35:57;;;;;;;8.70;4.50;;;;;;;8.19;87.16;100741.02;107322;1286;1002132;-63
2023/11/30 09:38:23;;;;;;;10.00;5.20;;;;;;;8.20;84.53;100739.63;108200;1285;21997;-60
2023/11/30 09:40:51;;;;;;;9.10;5.10;;;;;;;8.20;84.50;100740.84;108165;1283;21998;-62
2023/11/30 09:43:16;;;;;;;9.90;5.00;;;;;;;8.21;83.74;100742.23;108311;1286;22945;-60
2023/11/30 09:45:44;;;;;;;13.20;7.60;;;;;;;8.19;84.75;100745.21;108188;1286;21999;-61
2023/11/30 09:48:11;;;;;;;14.10;7.90;;;;;;;8.18;84.42;100743.98;108103;1274;21997;-62
2023/11/30 09:50:36;;;;;;;15.30;7.40;;;;;;;8.16;85.48;100740.67;108187;1286;22025;-62
2023/11/30 09:53:02;;;;;;;11.40;6.00;;;;;;;8.17;85.43;100735.07;108068;1285;21988;-61
2023/11/30 09:55:28;;;;;;;10.90;5.60;;;;;;;8.13;82.34;100734.02;108172;1285;22002;-60
2023/11/30 09:57:54;;;;;;;9.50;5.20;;;;;;;8.11;82.76;100736.63;108168;1285;22027;-60
2023/11/30 10:00:20;;;;;;;10.70;5.40;;;;;;;8.06;81.68;100742.20;108154;1285;21992;-61
2023/11/30 10:02:55;;;;;;;12.30;6.80;;;;;;;7.98;80.79;100742.69;108087;1276;21990;-61
2023/11/30 10:05:21;;;;;;;15.00;7.90;;;;;;;7.89;78.41;100748.25;108091;1285;23714;-62
2023/11/30 10:07:47;;;;;;;13.20;7.60;;;;;;;7.77;75.07;100741.02;108064;1273;21987;-63
2023/11/30 10:10:14;;;;;;;13.40;7.90;;;;;;;7.70;79.03;100737.14;108206;1286;22030;-63
2023/11/30 10:12:40;;;;;;;14.10;8.30;;;;;;;7.62;78.16;100738.33;108102;1286;21991;-62
2023/11/30 10:15:07;;;;;;;12.80;6.90;;;;;;;7.57;77.39;100737.77;108122;1285;22006;-62
2023/11/30 10:17:33;;;;;;;11.60;6.20;;;;;;;7.57;76.48;100741.44;108260;1273;22048;-61
2023/11/30 10:20:04;;;;;;;11.70;6.60;;;;;;;7.61;78.09;100740.59;108251;1278;21979;-60
2023/11/30 10:22:30;;;;;;;13.10;7.50;;;;;;;7.66;77.82;100743.77;108307;1285;21987;-61
2023/11/30 10:24:55;;;;;;;13.30;7.60;;;;;;;7.64;76.58;100742.54;108323;1286;21993;-60
2023/11/30 10:27:22;;;;;;;13.10;6.80;;;;;;;7.60;76.37;100743.55;108255;1285;21989;-62
2023/11/30 10:29:48;;;;;;;11.00;6.50;;;;;;;7.57;75.59;100742.84;108339;1274;21989;-62
2023/11/30 10:32:15;;;;;;;11.10;6.30;;;;;;;7.55;72.92;100745.80;108270;1285;21988;-60
2023/11/30 10:34:48;;;;;;;13.20;6.50;;;;;;;7.54;71.74;100744.03;108231;1280;22027;-60
2023/11/30 10:37:19;;;;;;;12.10;6.60;;;;;;;7.61;72.55;100740.25;108296;1286;21989;-61
2023/11/30 10:40:03;;;;;;;12.30;6.10;;;;;;;7.71;74.09;100746.23;108311;1273;21990;-61
2023/11/30 10:42:32;;;;;;;18.70;9.70;;;;;;;7.82;75.69;100750.84;108136;1285;22452;-61
2023/11/30 10:44:58;;;;;;;15.00;7.90;;;;;;;7.92;77.05;100753.50;108121;1286;22853;-61
2023/11/30 10:47:24;;;;;;;407.00;161.60;;;;;;;7.99;76.11;100755.63;108098;1280;21990;-61
2023/11/30 10:49:50;;;;;;;62.20;32.00;;;;;;;8.07;77.36;100760.55;107917;1285;21998;-61
2023/11/30 10:52:16;;;;;;;15.60;8.50;;;;;;;8.08;73.70;100763.36;108070;1283;21992;-61
2023/11/30 10:54:51;;;;;;;12.20;6.10;;;;;;;8.11;72.98;100770.02;108186;1282;22458;-60
2023/11/30 10:57:18;;;;;;;10.30;5.60;;;;;;;8.21;76.76;100770.05;108221;1285;21985;-61
2023/11/30 10:59:52;;;;;;;8.80;4.70;;;;;;;8.23;72.72;100766.20;108194;1286;21993;-60
2023/11/30 11:02:20;;;;;;;8.20;4.50;;;;;;;8.32;74.45;100761.52;107501;1280;1002352;-60
2023/11/30 11:04:46;;;;;;;8.10;4.50;;;;;;;8.40;70.61;100749.65;108177;1285;21991;-61
2023/11/30 11:07:12;;;;;;;8.40;3.90;;;;;;;8.52;70.85;100745.33;108052;1286;21987;-62
2023/11/30 11:09:50;;;;;;;7.40;4.30;;;;;;;8.62;68.88;100737.48;108136;1274;21984;-61